Chignik Lagoon, AK

6:10 PM AKST on December 24, 2014 (GMT -0900)
Port Heiden | Change Station
CLOSE
Current Station
Airport
Location: Port Heiden,
Elevation: 95 ft
Nearby Weather Stations

Elev 95 ft 56.96 °N, 158.63 °W | Updated 14 minutes ago

Clear
Clear
37 °F
Feels Like 27 °F
N
21
Wind Variable Wind from SE
Gusts 25 mph

Today
High -- | Low -- °F
--% Chance of Precip.
Yesterday
High -- | Low -- °F
Precip. -- in
10:06 AM 5:01 PM
Waxing Crescent, 13% visible
Pressure 29.45 in
Visibility 10.0 miles
Clouds Clear
Windchill 27 °F
Dew Point 27 °F
Humidity 65%
Rainfall 0.02 in
Snow Depth Not available.
UV 0 out of 12
Pollen Not available.
Air Quality Not available.
Flu Activity Not available.
METAR PAPH 250256Z AUTO 13018G22KT 10SM CLR 03/M03 A2945 RMK AO1 57037

More Conditions Fewer Conditions

Pressure 29.45 in
Visibility 10.0 miles
Clouds Clear
Windchill 27 °F
Dew Point 27 °F
Humidity 65%
Rainfall 0.02 in
Snow Depth Not available.
UV 0 out of 12
Pollen Not available.
Air Quality Not available.
Flu Activity Not available.
METAR PAPH 250256Z AUTO 13018G22KT 10SM CLR 03/M03 A2945 RMK AO1 57037

More Conditions Fewer Conditions

10-Day Weather Forecast

Almanac

Astronomy

Dec. 24, 2014 Rise Set
Actual Time
Civil Twilight
Nautical Twilight
Astronomical Twilight
Moon
Length of Visible Light
Length of Day
Tomorrow will be .
, % of the Moon is Illuminated

Today's Extremes

State Highs State Lows

Community

WunderPhotos

Upload Photos

1,780,224 photos uploaded!

WunderBlogs® & News

Nearby

Air Quality

  Air Quality AQ Index Pollutant
Not available.

Snow Depth

Station Depth Elevation

Earthquake Activity

City Distance Mag. Time & Date
Minimum magnitude displayed is 2.5.

Coastal Water Temperatures

Place Temperature

Nearby Weather Stations